^^
Your Local Weather - Clay, NY Station Historical Data
Daily Summary for May 23, 2017 Units:  English    Metric   Both
« Previous Day
Next Day »
Daily Weekly Monthly Yearly Custom
  High: Low: Average:
Temperature: 73.3 °F 42.9 °F 58.4 °F
Dew Point: 53.9 °F 40.7 °F 47.1 °F
Humidity: 94% 39% 69%
Wind Speed: 5.0mph 0.0mph 0.7mph
Wind Gust: 8.0mph - -
Wind- - SSW
Pressure: 29.97 in 29.73 in -
Precipitation: 0.00 in    
Historical Graphs
 
 
Tabular Data for May 23, 2017
Time Temperature Dew Point Pressure Wind Wind Speed Wind Gust Humidity Rainfall Rate (Hourly) solar
00:00 47.6 °F 43.0 °F 29.97 in Calm     84% 0.00 in 0 W/m2
00:06 47.3 °F 42.7 °F 29.97 in Calm     84% 0.00 in 0 W/m2
00:12 47.1 °F 42.5 °F 29.97 in Calm     84% 0.00 in 0 W/m2
00:18 47.0 °F 42.7 °F 29.97 in Calm     85% 0.00 in 0 W/m2
00:24 46.9 °F 42.9 °F 29.97 in Calm     86% 0.00 in 0 W/m2
00:30 47.0 °F 43.3 °F 29.96 in Calm     87% 0.00 in 0 W/m2
00:36 46.9 °F 43.2 °F 29.96 in Calm     87% 0.00 in 0 W/m2
00:42 46.5 °F 42.8 °F 29.96 in Calm     87% 0.00 in 0 W/m2
00:48 46.3 °F 42.9 °F 29.96 in Calm     88% 0.00 in 0 W/m2
00:54 46.2 °F 42.8 °F 29.95 in Calm     88% 0.00 in 0 W/m2
01:00 45.9 °F 42.5 °F 29.95 in Calm     88% 0.00 in 0 W/m2
01:06 45.7 °F 42.3 °F 29.95 in Calm     88% 0.00 in 0 W/m2
01:12 45.7 °F 42.6 °F 29.94 in Calm     89% 0.00 in 0 W/m2
01:18 45.6 °F 42.5 °F 29.95 in Calm     89% 0.00 in 0 W/m2
01:24 45.4 °F 42.3 °F 29.94 in Calm     89% 0.00 in 0 W/m2
01:30 45.4 °F 42.3 °F 29.94 in Calm     89% 0.00 in 0 W/m2
01:36 45.4 °F 42.6 °F 29.94 in Calm     90% 0.00 in 0 W/m2
01:42 45.3 °F 42.5 °F 29.93 in Calm     90% 0.00 in 0 W/m2
01:48 45.2 °F 42.4 °F 29.94 in Calm     90% 0.00 in 0 W/m2
01:54 45.1 °F 42.3 °F 29.94 in Calm     90% 0.00 in 0 W/m2
02:00 44.8 °F 42.0 °F 29.94 in Calm     90% 0.00 in 0 W/m2
02:06 44.6 °F 41.8 °F 29.93 in Calm     90% 0.00 in 0 W/m2
02:12 44.5 °F 41.7 °F 29.94 in Calm     90% 0.00 in 0 W/m2
02:18 44.4 °F 41.7 °F 29.93 in Calm     90% 0.00 in 0 W/m2
02:24 44.3 °F 41.6 °F 29.93 in Calm     90% 0.00 in 0 W/m2
02:30 44.3 °F 41.6 °F 29.93 in Calm     90% 0.00 in 0 W/m2
02:36 44.3 °F 41.8 °F 29.93 in Calm     91% 0.00 in 0 W/m2
02:42 44.2 °F 41.7 °F 29.92 in Calm     91% 0.00 in 0 W/m2
02:48 44.2 °F 41.7 °F 29.92 in Calm     91% 0.00 in 0 W/m2
02:54 44.2 °F 41.7 °F 29.93 in Calm     91% 0.00 in 0 W/m2
03:00 44.0 °F 41.5 °F 29.93 in Calm     91% 0.00 in 0 W/m2
03:06 43.9 °F 41.4 °F 29.93 in Calm     91% 0.00 in 0 W/m2
03:12 43.7 °F 41.2 °F 29.92 in Calm     91% 0.00 in 0 W/m2
03:18 43.6 °F 41.1 °F 29.92 in Calm     91% 0.00 in 0 W/m2
03:24 43.6 °F 41.1 °F 29.92 in Calm     91% 0.00 in 0 W/m2
03:30 43.5 °F 41.0 °F 29.92 in Calm     91% 0.00 in 0 W/m2
03:36 43.4 °F 40.9 °F 29.92 in Calm     91% 0.00 in 0 W/m2
03:42 43.6 °F 41.1 °F 29.92 in Calm     91% 0.00 in 0 W/m2
03:48 43.6 °F 41.1 °F 29.92 in Calm     91% 0.00 in 0 W/m2
03:54 43.7 °F 41.5 °F 29.92 in Calm     92% 0.00 in 0 W/m2
04:00 43.7 °F 41.5 °F 29.91 in Calm     92% 0.00 in 0 W/m2
04:06 43.6 °F 41.4 °F 29.91 in Calm     92% 0.00 in 0 W/m2
04:12 43.4 °F 41.2 °F 29.91 in Calm     92% 0.00 in 0 W/m2
04:18 43.3 °F 41.1 °F 29.91 in Calm     92% 0.00 in 0 W/m2
04:24 43.1 °F 40.9 °F 29.91 in Calm     92% 0.00 in 0 W/m2
04:30 42.9 °F 40.7 °F 29.91 in Calm     92% 0.00 in 0 W/m2
04:36 43.0 °F 40.8 °F 29.91 in Calm     92% 0.00 in 0 W/m2
04:42 43.2 °F 41.0 °F 29.91 in Calm     92% 0.00 in 0 W/m2
04:48 43.1 °F 40.9 °F 29.91 in Calm     92% 0.00 in 0 W/m2
04:54 43.3 °F 41.1 °F 29.91 in Calm     92% 0.00 in 0 W/m2
05:00 43.5 °F 41.3 °F 29.91 in Calm     92% 0.00 in 0 W/m2
05:06 43.6 °F 41.4 °F 29.91 in Calm     92% 0.00 in 0 W/m2
05:12 43.6 °F 41.4 °F 29.91 in Calm     92% 0.00 in 0 W/m2
05:18 43.5 °F 41.3 °F 29.91 in Calm     92% 0.00 in 0 W/m2
05:24 43.5 °F 41.3 °F 29.92 in Calm     92% 0.00 in 0 W/m2
05:30 43.4 °F 41.2 °F 29.92 in Calm     92% 0.00 in 0 W/m2
05:36 43.3 °F 41.1 °F 29.92 in Calm     92% 0.00 in 0 W/m2
05:42 43.3 °F 41.4 °F 29.92 in Calm     93% 0.00 in 9 W/m2
05:48 43.2 °F 41.3 °F 29.92 in Calm     93% 0.00 in 11 W/m2
05:54 43.2 °F 41.3 °F 29.92 in Calm     93% 0.00 in 14 W/m2
06:00 43.2 °F 41.3 °F 29.92 in Calm     93% 0.00 in 18 W/m2
06:06 43.2 °F 41.3 °F 29.91 in Calm     93% 0.00 in 23 W/m2
06:12 43.3 °F 41.4 °F 29.91 in Calm     93% 0.00 in 26 W/m2
06:18 43.5 °F 41.6 °F 29.92 in Calm     93% 0.00 in 42 W/m2
06:24 43.6 °F 41.7 °F 29.92 in Calm     93% 0.00 in 40 W/m2
06:30 43.7 °F 41.8 °F 29.92 in Calm     93% 0.00 in 95 W/m2
06:36 44.3 °F 42.4 °F 29.92 in Calm     93% 0.00 in 98 W/m2
06:42 45.2 °F 43.3 °F 29.91 in Calm     93% 0.00 in 104 W/m2
06:48 45.8 °F 43.9 °F 29.91 in Calm     93% 0.00 in 127 W/m2
06:54 46.2 °F 44.3 °F 29.91 in Calm     93% 0.00 in 167 W/m2
07:00 46.9 °F 45.0 °F 29.91 in Calm     93% 0.00 in 127 W/m2
07:06 47.2 °F 45.3 °F 29.91 in Calm     93% 0.00 in 155 W/m2
07:12 47.7 °F 46.1 °F 29.91 in Calm     94% 0.00 in 165 W/m2
07:18 48.3 °F 46.4 °F 29.91 in Calm     93% 0.00 in 214 W/m2
07:24 48.8 °F 46.9 °F 29.91 in Calm     93% 0.00 in 209 W/m2
07:30 49.3 °F 47.4 °F 29.91 in Calm     93% 0.00 in 200 W/m2
07:36 50.2 °F 48.3 °F 29.91 in Calm     93% 0.00 in 213 W/m2
07:42 50.6 °F 48.4 °F 29.91 in Calm     92% 0.00 in 204 W/m2
07:48 51.0 °F 48.2 °F 29.91 in Calm     90% 0.00 in 220 W/m2
07:54 51.3 °F 47.6 °F 29.91 in Calm     87% 0.00 in 218 W/m2
08:00 51.9 °F 47.5 °F 29.91 in Calm     85% 0.00 in 216 W/m2
08:06 52.5 °F 47.5 °F 29.91 in Calm     83% 0.00 in 232 W/m2
08:12 53.2 °F 47.8 °F 29.91 in Calm   1.0 mph 82% 0.00 in 204 W/m2
08:18 53.4 °F 47.7 °F 29.91 in WSW 1.0 mph 1.0 mph 81% 0.00 in 192 W/m2
08:24 53.7 °F 48.0 °F 29.91 in WSW 1.0 mph 1.0 mph 81% 0.00 in 229 W/m2
08:30 54.0 °F 48.0 °F 29.91 in WSW 1.0 mph 1.0 mph 80% 0.00 in 292 W/m2
08:36 54.5 °F 48.1 °F 29.91 in WSW 1.0 mph 1.0 mph 79% 0.00 in 355 W/m2
08:42 55.5 °F 49.1 °F 29.91 in Calm   1.0 mph 79% 0.00 in 417 W/m2
08:48 56.2 °F 49.1 °F 29.91 in SW 1.0 mph 3.0 mph 77% 0.00 in 408 W/m2
08:54 56.4 °F 48.6 °F 29.91 in SW 1.0 mph 1.0 mph 75% 0.00 in 401 W/m2
09:00 56.9 °F 48.3 °F 29.91 in SW 1.0 mph 3.0 mph 73% 0.00 in 308 W/m2
09:06 57.3 °F 48.7 °F 29.90 in SW 1.0 mph 3.0 mph 73% 0.00 in 411 W/m2
09:12 58.3 °F 49.3 °F 29.90 in Calm     72% 0.00 in 336 W/m2
09:18 58.8 °F 49.8 °F 29.90 in Calm     72% 0.00 in 403 W/m2
09:24 59.4 °F 50.0 °F 29.89 in Calm     71% 0.00 in 397 W/m2
09:30 59.6 °F 49.4 °F 29.89 in Calm   2.0 mph 69% 0.00 in 378 W/m2
09:36 59.6 °F 49.0 °F 29.89 in Calm   2.0 mph 68% 0.00 in 306 W/m2
09:42 59.6 °F 48.6 °F 29.89 in SW 1.0 mph 1.0 mph 67% 0.00 in 295 W/m2
09:48 59.9 °F 49.3 °F 29.89 in SW 1.0 mph 1.0 mph 68% 0.00 in 320 W/m2
09:54 60.2 °F 49.6 °F 29.89 in SW 1.0 mph 2.0 mph 68% 0.00 in 369 W/m2
10:00 60.5 °F 47.8 °F 29.90 in SW 1.0 mph 1.0 mph 63% 0.00 in 346 W/m2
10:06 60.8 °F 48.1 °F 29.90 in SW 1.0 mph 3.0 mph 63% 0.00 in 352 W/m2
10:12 61.1 °F 48.8 °F 29.89 in SW 1.0 mph 1.0 mph 64% 0.00 in 415 W/m2
10:18 61.6 °F 49.3 °F 29.89 in Calm   1.0 mph 64% 0.00 in 587 W/m2
10:24 62.0 °F 49.3 °F 29.89 in Calm   1.0 mph 63% 0.00 in 524 W/m2
10:30 62.2 °F 48.6 °F 29.90 in SW 1.0 mph 2.0 mph 61% 0.00 in 563 W/m2
10:36 62.5 °F 49.7 °F 29.90 in SSW 1.0 mph 2.0 mph 63% 0.00 in 492 W/m2
10:40 62.7 °F 48.6 °F 29.90 in SSE 1.0 mph 1.0 mph 60% 0.00 in 649 W/m2
10:46 62.9 °F 49.2 °F 29.91 in SSE 1.0 mph 2.0 mph 61% 0.00 in 494 W/m2
10:52 63.7 °F 48.6 °F 29.91 in SSE 2.0 mph 3.0 mph 58% 0.00 in 524 W/m2
10:58 63.1 °F 48.5 °F 29.91 in WSW 2.0 mph 3.0 mph 59% 0.00 in 369 W/m2
11:04 62.6 °F 48.5 °F 29.91 in SSE 3.0 mph 4.0 mph 60% 0.00 in 327 W/m2
11:10 62.9 °F 49.7 °F 29.91 in SSE 2.0 mph 2.0 mph 62% 0.00 in 373 W/m2
11:16 63.1 °F 48.5 °F 29.89 in SSE 1.0 mph 7.0 mph 59% 0.00 in 345 W/m2
11:22 63.2 °F 47.7 °F 29.89 in SW 3.0 mph 3.0 mph 57% 0.00 in 494 W/m2
11:28 63.7 °F 49.1 °F 29.89 in SW 2.0 mph 4.0 mph 59% 0.00 in 431 W/m2
11:34 64.1 °F 49.0 °F 29.89 in South 2.0 mph 3.0 mph 58% 0.00 in 580 W/m2
11:40 64.7 °F 49.1 °F 29.89 in SW 3.0 mph 5.0 mph 57% 0.00 in 761 W/m2
11:46 65.0 °F 49.9 °F 29.88 in West 3.0 mph 5.0 mph 58% 0.00 in 731 W/m2
11:48 65.1 °F 49.5 °F 29.89 in SSW 2.0 mph 5.0 mph 57% 0.00 in 838 W/m2
11:56 65.6 °F 50.0 °F 29.89 in South 3.0 mph 6.0 mph 57% 0.00 in 884 W/m2
12:02 66.3 °F 50.1 °F 29.88 in WSW 3.0 mph 3.0 mph 56% 0.00 in 946 W/m2
12:08 66.0 °F 49.4 °F 29.88 in SSE 4.0 mph 6.0 mph 55% 0.00 in 997 W/m2
12:14 65.7 °F 48.1 °F 29.88 in SSW 5.0 mph 7.0 mph 53% 0.00 in 492 W/m2
12:20 65.7 °F 48.1 °F 29.86 in SSE 4.0 mph 5.0 mph 53% 0.00 in 640 W/m2
12:26 65.8 °F 50.6 °F 29.86 in SSE 3.0 mph 5.0 mph 58% 0.00 in 777 W/m2
12:32 66.9 °F 51.2 °F 29.86 in SSE 2.0 mph 2.0 mph 57% 0.00 in 900 W/m2
12:38 67.0 °F 47.2 °F 29.86 in SW 2.0 mph 6.0 mph 49% 0.00 in 1021 W/m2
12:44 66.1 °F 46.9 °F 29.86 in SW 2.0 mph 3.0 mph 50% 0.00 in 561 W/m2
12:50 66.3 °F 48.1 °F 29.86 in South 2.0 mph 2.0 mph 52% 0.00 in 833 W/m2
12:56 67.5 °F 48.7 °F 29.85 in SW 1.0 mph 2.0 mph 51% 0.00 in 786 W/m2
13:02 67.4 °F 49.7 °F 29.85 in SE 2.0 mph 2.0 mph 53% 0.00 in 933 W/m2
13:08 68.0 °F 48.7 °F 29.85 in WSW 2.0 mph 4.0 mph 50% 0.00 in 877 W/m2
13:14 67.8 °F 47.9 °F 29.85 in SW 2.0 mph 2.0 mph 49% 0.00 in 958 W/m2
13:20 68.5 °F 48.0 °F 29.85 in SW 2.0 mph 2.0 mph 48% 0.00 in 972 W/m2
13:26 68.2 °F 48.8 °F 29.85 in South 2.0 mph 5.0 mph 50% 0.00 in 939 W/m2
13:32 69.2 °F 48.1 °F 29.84 in SSW 2.0 mph 4.0 mph 47% 0.00 in 942 W/m2
13:38 69.1 °F 47.4 °F 29.84 in ESE 3.0 mph 4.0 mph 46% 0.00 in 789 W/m2
13:44 69.1 °F 48.0 °F 29.83 in SSE 2.0 mph 3.0 mph 47% 0.00 in 881 W/m2
13:50 69.2 °F 49.2 °F 29.83 in SSW 2.0 mph 2.0 mph 49% 0.00 in 932 W/m2
13:56 69.3 °F 47.0 °F 29.83 in ESE 2.0 mph 4.0 mph 45% 0.00 in 914 W/m2
14:02 70.0 °F 48.8 °F 29.83 in SSW 3.0 mph 3.0 mph 47% 0.00 in 893 W/m2
14:08 69.7 °F 48.6 °F 29.83 in SE 3.0 mph 3.0 mph 47% 0.00 in 895 W/m2
14:14 69.9 °F 48.7 °F 29.82 in SE 3.0 mph 4.0 mph 47% 0.00 in 896 W/m2
14:20 69.8 °F 46.3 °F 29.82 in SE 3.0 mph 3.0 mph 43% 0.00 in 893 W/m2
14:26 70.2 °F 48.4 °F 29.82 in East 3.0 mph 5.0 mph 46% 0.00 in 879 W/m2
14:32 70.5 °F 52.5 °F 29.82 in South 4.0 mph 8.0 mph 53% 0.00 in 872 W/m2
14:38 71.2 °F 49.9 °F 29.82 in SW 3.0 mph 8.0 mph 47% 0.00 in 854 W/m2
14:44 71.1 °F 45.5 °F 29.82 in WSW 3.0 mph 3.0 mph 40% 0.00 in 851 W/m2
14:50 71.2 °F 48.2 °F 29.82 in WSW 3.0 mph 5.0 mph 44% 0.00 in 861 W/m2
14:56 71.6 °F 49.1 °F 29.81 in South 3.0 mph 5.0 mph 45% 0.00 in 849 W/m2
15:02 71.9 °F 47.6 °F 29.81 in WNW 2.0 mph 2.0 mph 42% 0.00 in 830 W/m2
15:08 71.6 °F 49.1 °F 29.81 in NNE 2.0 mph 5.0 mph 45% 0.00 in 824 W/m2
15:14 72.0 °F 48.9 °F 29.81 in North 2.0 mph 3.0 mph 44% 0.00 in 840 W/m2
15:20 71.9 °F 47.6 °F 29.81 in NNW 1.0 mph 1.0 mph 42% 0.00 in 821 W/m2
15:26 72.1 °F 46.4 °F 29.81 in North 1.0 mph 2.0 mph 40% 0.00 in 805 W/m2
15:32 72.1 °F 48.4 °F 29.81 in North 1.0 mph 2.0 mph 43% 0.00 in 796 W/m2
15:38 72.7 °F 48.3 °F 29.81 in NW 1.0 mph 2.0 mph 42% 0.00 in 752 W/m2
15:44 73.1 °F 51.7 °F 29.80 in SW 2.0 mph 6.0 mph 47% 0.00 in 768 W/m2
15:50 73.2 °F 47.4 °F 29.80 in SW 2.0 mph 2.0 mph 40% 0.00 in 652 W/m2
15:56 72.2 °F 46.5 °F 29.79 in SW 1.0 mph 2.0 mph 40% 0.00 in 591 W/m2
16:02 72.6 °F 46.9 °F 29.79 in WSW 1.0 mph 3.0 mph 40% 0.00 in 715 W/m2
16:08 72.7 °F 49.5 °F 29.79 in WSW 2.0 mph 3.0 mph 44% 0.00 in 671 W/m2
16:14 72.6 °F 48.2 °F 29.79 in WSW 2.0 mph 3.0 mph 42% 0.00 in 657 W/m2
16:20 73.3 °F 48.8 °F 29.78 in WSW 2.0 mph 2.0 mph 42% 0.00 in 596 W/m2
16:26 72.9 °F 50.3 °F 29.78 in SW 2.0 mph 3.0 mph 45% 0.00 in 563 W/m2
16:32 72.9 °F 50.9 °F 29.78 in SW 2.0 mph 2.0 mph 46% 0.00 in 499 W/m2
16:38 73.1 °F 49.3 °F 29.78 in SW 1.0 mph 2.0 mph 43% 0.00 in 584 W/m2
16:44 73.2 °F 50.0 °F 29.78 in SSE 1.0 mph 1.0 mph 44% 0.00 in 452 W/m2
16:50 73.2 °F 48.7 °F 29.78 in SW 1.0 mph 2.0 mph 42% 0.00 in 195 W/m2
16:56 72.5 °F 46.8 °F 29.78 in SW 1.0 mph 2.0 mph 40% 0.00 in 178 W/m2
17:04 72.3 °F 47.9 °F 29.77 in SW 1.0 mph 3.0 mph 42% 0.00 in 134 W/m2
17:10 72.3 °F 47.9 °F 29.77 in SW 1.0 mph 2.0 mph 42% 0.00 in 137 W/m2
17:16 72.2 °F 47.8 °F 29.77 in SSW 2.0 mph 3.0 mph 42% 0.00 in 123 W/m2
17:22 72.1 °F 47.1 °F 29.77 in SSW 1.0 mph 2.0 mph 41% 0.00 in 95 W/m2
17:28 72.3 °F 48.5 °F 29.77 in WSW 1.0 mph 2.0 mph 43% 0.00 in 83 W/m2
17:34 72.2 °F 45.9 °F 29.76 in WSW 1.0 mph 4.0 mph 39% 0.00 in 93 W/m2
17:40 71.9 °F 46.3 °F 29.76 in WSW 2.0 mph 2.0 mph 40% 0.00 in 93 W/m2
17:46 71.7 °F 47.4 °F 29.76 in WSW 1.0 mph 2.0 mph 42% 0.00 in 111 W/m2
17:52 71.6 °F 48.5 °F 29.76 in Calm   1.0 mph 44% 0.00 in 118 W/m2
17:58 71.5 °F 47.8 °F 29.76 in Calm   1.0 mph 43% 0.00 in 114 W/m2
18:00 71.6 °F 47.3 °F 29.76 in Calm     42% 0.00 in 114 W/m2
18:06 71.8 °F 48.1 °F 29.75 in Calm   2.0 mph 43% 0.00 in 104 W/m2
18:12 71.9 °F 48.8 °F 29.75 in WSW 1.0 mph 1.0 mph 44% 0.00 in 93 W/m2
18:18 71.8 °F 47.5 °F 29.75 in Calm   1.0 mph 42% 0.00 in 84 W/m2
18:24 71.8 °F 46.8 °F 29.75 in Calm     41% 0.00 in 90 W/m2
18:30 71.8 °F 46.8 °F 29.75 in Calm     41% 0.00 in 84 W/m2
18:36 71.8 °F 47.5 °F 29.75 in Calm     42% 0.00 in 90 W/m2
18:42 71.8 °F 47.5 °F 29.75 in Calm     42% 0.00 in 88 W/m2
18:48 71.8 °F 46.8 °F 29.75 in Calm   2.0 mph 41% 0.00 in 81 W/m2
18:54 71.8 °F 48.7 °F 29.75 in Calm     44% 0.00 in 74 W/m2
19:00 71.5 °F 47.8 °F 29.75 in Calm   1.0 mph 43% 0.00 in 77 W/m2
19:06 71.2 °F 50.5 °F 29.75 in Calm   3.0 mph 48% 0.00 in 65 W/m2
19:12 70.8 °F 49.6 °F 29.75 in NNE 1.0 mph 3.0 mph 47% 0.00 in 62 W/m2
19:18 70.5 °F 49.3 °F 29.75 in NNE 2.0 mph 3.0 mph 47% 0.00 in 62 W/m2
19:24 70.2 °F 49.0 °F 29.75 in NE 1.0 mph 3.0 mph 47% 0.00 in 58 W/m2
19:30 69.8 °F 50.3 °F 29.75 in NE 1.0 mph 1.0 mph 50% 0.00 in 54 W/m2
19:36 69.4 °F 49.9 °F 29.75 in Calm   1.0 mph 50% 0.00 in 53 W/m2
19:42 68.9 °F 52.6 °F 29.75 in Calm     56% 0.00 in 49 W/m2
19:48 68.3 °F 51.5 °F 29.75 in Calm     55% 0.00 in 42 W/m2
19:54 67.7 °F 50.9 °F 29.75 in Calm     55% 0.00 in 33 W/m2
20:00 67.0 °F 51.7 °F 29.75 in Calm     58% 0.00 in 28 W/m2
20:06 66.5 °F 52.2 °F 29.75 in Calm     60% 0.00 in 19 W/m2
20:12 66.0 °F 52.6 °F 29.74 in Calm     62% 0.00 in 14 W/m2
20:18 65.2 °F 53.1 °F 29.74 in Calm     65% 0.00 in 9 W/m2
20:24 64.7 °F 53.9 °F 29.74 in Calm     68% 0.00 in 5 W/m2
20:30 64.0 °F 52.8 °F 29.74 in Calm     67% 0.00 in 0 W/m2
20:36 63.4 °F 52.7 °F 29.73 in Calm     68% 0.00 in 0 W/m2
20:42 62.9 °F 51.8 °F 29.73 in Calm     67% 0.00 in 0 W/m2
20:48 62.5 °F 52.2 °F 29.73 in Calm     69% 0.00 in 0 W/m2
20:54 62.2 °F 52.3 °F 29.74 in Calm     70% 0.00 in 0 W/m2
21:00 61.7 °F 51.8 °F 29.74 in Calm     70% 0.00 in 0 W/m2
21:06 61.2 °F 50.9 °F 29.74 in Calm     69% 0.00 in 0 W/m2
21:12 60.9 °F 51.4 °F 29.74 in Calm     71% 0.00 in 0 W/m2
21:18 60.5 °F 51.0 °F 29.74 in Calm     71% 0.00 in 0 W/m2
21:24 60.3 °F 51.2 °F 29.74 in Calm     72% 0.00 in 0 W/m2
21:30 60.1 °F 51.4 °F 29.74 in Calm     73% 0.00 in 0 W/m2
21:32 60.0 °F 51.3 °F 29.74 in Calm     73% 0.00 in 0 W/m2
21:38 59.8 °F 51.5 °F 29.75 in Calm     74% 0.00 in 0 W/m2
21:44 59.7 °F 51.8 °F 29.75 in Calm     75% 0.00 in 0 W/m2
21:50 59.5 °F 52.6 °F 29.75 in Calm     78% 0.00 in 0 W/m2
21:56 59.1 °F 51.5 °F 29.75 in Calm     76% 0.00 in 0 W/m2
22:02 58.9 °F 52.1 °F 29.75 in Calm     78% 0.00 in 0 W/m2
22:08 58.4 °F 51.2 °F 29.75 in Calm     77% 0.00 in 0 W/m2
22:14 58.0 °F 51.2 °F 29.75 in Calm     78% 0.00 in 0 W/m2
22:20 57.8 °F 51.3 °F 29.75 in Calm     79% 0.00 in 0 W/m2
22:26 57.4 °F 51.3 °F 29.75 in Calm     80% 0.00 in 0 W/m2
22:32 57.2 °F 51.1 °F 29.75 in Calm     80% 0.00 in 0 W/m2
22:38 57.0 °F 51.2 °F 29.75 in Calm     81% 0.00 in 0 W/m2
22:44 56.8 °F 51.4 °F 29.75 in Calm     82% 0.00 in 0 W/m2
22:50 56.5 °F 50.7 °F 29.75 in Calm     81% 0.00 in 0 W/m2
22:56 56.4 °F 51.0 °F 29.75 in Calm     82% 0.00 in 0 W/m2
23:02 56.2 °F 50.8 °F 29.75 in Calm     82% 0.00 in 0 W/m2
23:08 56.0 °F 50.6 °F 29.74 in Calm     82% 0.00 in 0 W/m2
23:14 55.8 °F 50.7 °F 29.75 in Calm     83% 0.00 in 0 W/m2
23:20 55.7 °F 50.6 °F 29.74 in Calm     83% 0.00 in 0 W/m2
23:26 55.4 °F 50.6 °F 29.74 in Calm     84% 0.00 in 0 W/m2
23:32 55.3 °F 50.5 °F 29.74 in Calm     84% 0.00 in 0 W/m2
23:38 55.1 °F 50.7 °F 29.74 in Calm     85% 0.00 in 0 W/m2
23:44 54.9 °F 50.5 °F 29.74 in Calm     85% 0.00 in 0 W/m2
23:50 54.8 °F 50.7 °F 29.74 in Calm     86% 0.00 in 0 W/m2
23:56 54.6 °F 50.5 °F 29.74 in Calm     86% 0.00 in 0 W/m2
Country Meadow, Clay, NY, USA
Compliments of Weather Underground - 2 mb